Time;durP1;ratioP1;P1;durP2;ratioP2;P2;SDS_P1;SDS_P2;PMS_P1;PMS_P2;Temp;Humidity;BMP_temperature;BMP_pressure;BME280_temperature;BME280_humidity;BME280_pressure;Samples;Min_cycle;Max_cycle;Signal;HPM_P1;HPM_P2
2021/04/10 00:01:10;;;;;;;11.38;4.13;;;;;;;;;;5094361;28;20033;-67
2021/04/10 00:03:36;;;;;;;18.15;5.95;;;;;;;;;;5093042;28;20044;-67
2021/04/10 00:06:02;;;;;;;10.98;4.43;;;;;;;;;;5093780;28;20491;-67
2021/04/10 00:08:28;;;;;;;13.07;4.97;;;;;;;;;;5092977;28;20024;-67
2021/04/10 00:10:55;;;;;;;10.18;3.92;;;;;;;;;;5094136;28;20499;-67
2021/04/10 00:13:21;;;;;;;7.25;3.47;;;;;;;;;;5093855;28;20024;-67
2021/04/10 00:15:47;;;;;;;6.60;2.70;;;;;;;;;;5094293;28;20024;-67
2021/04/10 00:18:14;;;;;;;10.52;3.15;;;;;;;;;;5092782;28;20156;-67
2021/04/10 00:20:40;;;;;;;6.88;3.05;;;;;;;;;;5093570;28;20023;-67
2021/04/10 00:23:06;;;;;;;8.10;3.20;;;;;;;;;;5093936;28;20081;-67
2021/04/10 00:25:32;;;;;;;6.53;2.92;;;;;;;;;;5093935;28;20026;-67
2021/04/10 00:27:58;;;;;;;9.30;4.20;;;;;;;;;;5093496;28;20031;-68
2021/04/10 00:30:24;;;;;;;14.50;3.90;;;;;;;;;;5093856;28;20020;-68
2021/04/10 00:32:51;;;;;;;8.95;3.83;;;;;;;;;;5093766;28;20099;-67
2021/04/10 00:35:18;;;;;;;10.05;3.53;;;;;;;;;;5093486;28;20077;-67
2021/04/10 00:37:45;;;;;;;12.02;4.50;;;;;;;;;;5093799;28;20016;-67
2021/04/10 00:40:11;;;;;;;9.48;3.60;;;;;;;;;;5093554;28;20517;-67
2021/04/10 00:42:38;;;;;;;6.68;3.72;;;;;;;;;;5093094;28;20483;-67
2021/04/10 00:45:08;;;;;;;8.52;4.25;;;;;;;;;;5091997;28;20028;-67
2021/04/10 00:47:34;;;;;;;6.70;3.28;;;;;;;;;;5093492;28;20055;-67
2021/04/10 00:50:00;;;;;;;7.22;3.65;;;;;;;;;;5093015;28;20098;-67
2021/04/10 00:52:27;;;;;;;8.32;3.45;;;;;;;;;;5093500;28;20532;-68
2021/04/10 00:54:53;;;;;;;5.97;2.90;;;;;;;;;;5092586;28;20032;-67
2021/04/10 00:57:20;;;;;;;9.63;3.15;;;;;;;;;;5093540;28;20102;-67
2021/04/10 00:59:47;;;;;;;7.93;3.17;;;;;;;;;;5091933;28;20511;-67
2021/04/10 01:02:14;;;;;;;11.68;4.68;;;;;;;;;;5091474;28;20519;-67
2021/04/10 01:04:41;;;;;;;15.80;5.53;;;;;;;;;;5093243;28;20020;-67
2021/04/10 01:07:07;;;;;;;28.02;15.98;;;;;;;;;;5091759;28;20399;-68
2021/04/10 01:09:34;;;;;;;20.08;10.77;;;;;;;;;;5092800;28;20140;-67
2021/04/10 01:12:23;;;;;;;20.98;9.60;;;;;;;;;;5093038;28;20488;-67
2021/04/10 01:14:49;;;;;;;26.73;11.55;;;;;;;;;;5093141;28;20104;-67
2021/04/10 01:17:18;;;;;;;12.82;6.88;;;;;;;;;;5092783;28;20046;-67
2021/04/10 01:19:56;;;;;;;23.73;9.10;;;;;;;;;;5093039;28;20016;-67
2021/04/10 01:22:22;;;;;;;26.95;10.90;;;;;;;;;;5092955;28;20030;-67
2021/04/10 01:24:55;;;;;;;28.70;9.45;;;;;;;;;;5092502;28;20067;-67
2021/04/10 01:27:39;;;;;;;17.27;7.55;;;;;;;;;;5091548;28;20032;-68
2021/04/10 01:30:07;;;;;;;12.63;6.75;;;;;;;;;;5091397;28;20030;-68
2021/04/10 01:32:36;;;;;;;16.40;7.25;;;;;;;;;;5092765;28;20036;-67
2021/04/10 01:35:06;;;;;;;17.50;8.77;;;;;;;;;;5092864;28;20361;-67
2021/04/10 01:37:34;;;;;;;16.27;8.32;;;;;;;;;;5092769;28;20024;-67
2021/04/10 01:40:01;;;;;;;17.70;7.53;;;;;;;;;;5092694;28;20028;-67
2021/04/10 01:42:28;;;;;;;15.00;7.07;;;;;;;;;;5092695;28;20049;-67
2021/04/10 01:44:57;;;;;;;12.35;6.90;;;;;;;;;;5092312;28;20443;-67
2021/04/10 01:47:24;;;;;;;15.30;6.72;;;;;;;;;;5091273;28;20047;-67
2021/04/10 01:49:50;;;;;;;10.75;5.60;;;;;;;;;;5092639;28;20068;-67
2021/04/10 01:52:18;;;;;;;13.68;6.32;;;;;;;;;;5092256;28;20095;-67
2021/04/10 01:54:45;;;;;;;17.75;6.65;;;;;;;;;;5092641;28;20028;-67
2021/04/10 01:57:11;;;;;;;13.55;5.97;;;;;;;;;;5092767;28;20027;-67
2021/04/10 01:59:42;;;;;;;13.13;5.60;;;;;;;;;;5092139;28;20380;-68
2021/04/10 02:02:09;;;;;;;11.43;4.75;;;;;;;;;;5091542;28;20472;-67
2021/04/10 02:04:38;;;;;;;9.30;4.47;;;;;;;;;;5092461;28;20531;-67
2021/04/10 02:07:04;;;;;;;10.07;4.25;;;;;;;;;;5092381;28;20158;-67
2021/04/10 02:09:33;;;;;;;10.40;4.30;;;;;;;;;;5096580;28;20023;-67
2021/04/10 02:11:59;;;;;;;8.65;4.22;;;;;;;;;;5096475;28;20056;-67
2021/04/10 02:14:25;;;;;;;6.65;3.13;;;;;;;;;;5094808;28;20027;-67
2021/04/10 02:16:52;;;;;;;9.88;3.65;;;;;;;;;;5096600;28;20096;-67
2021/04/10 02:19:18;;;;;;;11.68;3.50;;;;;;;;;;5094700;28;20052;-67
2021/04/10 02:21:44;;;;;;;9.13;4.40;;;;;;;;;;5096404;28;20020;-67
2021/04/10 02:24:14;;;;;;;10.32;3.53;;;;;;;;;;5096262;28;20052;-67
2021/04/10 02:26:40;;;;;;;5.50;2.63;;;;;;;;;;5095712;28;20089;-67
2021/04/10 02:29:06;;;;;;;7.18;3.35;;;;;;;;;;5096117;28;20391;-67
2021/04/10 02:31:42;;;;;;;8.73;3.45;;;;;;;;;;5096370;28;20028;-68
2021/04/10 02:34:12;;;;;;;9.15;3.35;;;;;;;;;;5095813;28;20027;-68
2021/04/10 02:36:39;;;;;;;8.07;4.10;;;;;;;;;;5095952;28;20082;-67
2021/04/10 02:39:06;;;;;;;10.45;4.38;;;;;;;;;;5095981;28;20051;-67
2021/04/10 02:41:33;;;;;;;9.30;4.43;;;;;;;;;;5095548;28;20387;-67
2021/04/10 02:44:01;;;;;;;8.00;4.45;;;;;;;;;;5095874;28;20027;-67
2021/04/10 02:46:29;;;;;;;11.02;4.63;;;;;;;;;;5095504;28;20075;-68
2021/04/10 02:49:03;;;;;;;10.77;4.95;;;;;;;;;;5095334;28;20065;-67
2021/04/10 02:51:31;;;;;;;10.18;4.70;;;;;;;;;;5095919;28;20380;-67
2021/04/10 02:53:58;;;;;;;10.75;5.07;;;;;;;;;;5095848;28;20416;-68
2021/04/10 02:56:26;;;;;;;10.05;4.95;;;;;;;;;;5095160;28;20069;-68
2021/04/10 02:58:53;;;;;;;11.88;4.78;;;;;;;;;;5095644;28;20019;-67
2021/04/10 03:01:19;;;;;;;9.55;4.80;;;;;;;;;;5094246;28;20024;-67
2021/04/10 03:03:46;;;;;;;8.57;4.35;;;;;;;;;;5095089;28;20016;-67
2021/04/10 03:06:13;;;;;;;13.35;6.28;;;;;;;;;;5095385;28;20119;-67
2021/04/10 03:08:41;;;;;;;15.18;5.22;;;;;;;;;;5095034;28;20027;-67
2021/04/10 03:11:08;;;;;;;8.95;4.60;;;;;;;;;;5095596;28;20506;-68
2021/04/10 03:13:35;;;;;;;10.10;5.10;;;;;;;;;;5094184;28;20392;-68
2021/04/10 03:16:01;;;;;;;10.45;5.35;;;;;;;;;;5094882;28;20473;-67
2021/04/10 03:18:27;;;;;;;9.05;4.93;;;;;;;;;;5093806;28;20024;-67
2021/04/10 03:20:54;;;;;;;9.27;5.20;;;;;;;;;;5095127;28;20028;-68
2021/04/10 03:23:20;;;;;;;12.73;6.45;;;;;;;;;;5094799;28;20026;-67
2021/04/10 03:25:46;;;;;;;15.32;7.45;;;;;;;;;;5093769;28;20428;-67
2021/04/10 03:28:13;;;;;;;10.98;5.38;;;;;;;;;;5094975;28;20034;-68
2021/04/10 03:30:40;;;;;;;9.75;4.60;;;;;;;;;;5094849;28;20020;-68
2021/04/10 03:33:06;;;;;;;8.35;4.45;;;;;;;;;;5094147;28;20069;-68
2021/04/10 03:35:33;;;;;;;10.68;4.18;;;;;;;;;;5094908;28;20396;-68
2021/04/10 03:38:00;;;;;;;6.60;4.20;;;;;;;;;;5094453;28;20024;-68
2021/04/10 03:40:27;;;;;;;16.73;5.70;;;;;;;;;;5094847;28;20065;-67
2021/04/10 03:42:53;;;;;;;13.85;6.03;;;;;;;;;;5094817;28;20039;-68
2021/04/10 03:45:20;;;;;;;11.73;5.63;;;;;;;;;;5094086;28;20126;-68
2021/04/10 03:47:47;;;;;;;11.93;5.25;;;;;;;;;;5094648;28;20031;-67
2021/04/10 03:50:14;;;;;;;9.95;4.82;;;;;;;;;;5094621;28;20024;-68
2021/04/10 03:52:40;;;;;;;12.27;6.22;;;;;;;;;;5094662;28;20383;-68
2021/04/10 03:55:07;;;;;;;11.88;5.20;;;;;;;;;;5094657;28;20021;-67
2021/04/10 03:57:34;;;;;;;10.95;5.03;;;;;;;;;;5093115;28;20031;-67
2021/04/10 04:00:00;;;;;;;11.30;4.82;;;;;;;;;;5092648;28;20119;-67
2021/04/10 04:02:29;;;;;;;11.43;4.13;;;;;;;;;;5094351;28;20020;-67
2021/04/10 04:04:56;;;;;;;8.57;4.03;;;;;;;;;;5094147;28;20020;-67
2021/04/10 04:07:22;;;;;;;9.63;3.80;;;;;;;;;;5094191;28;20038;-67
2021/04/10 04:09:48;;;;;;;43.83;23.27;;;;;;;;;;5094144;28;20044;-67
2021/04/10 04:12:14;;;;;;;48.92;34.83;;;;;;;;;;5093971;28;20107;-67
2021/04/10 04:14:41;;;;;;;40.00;31.67;;;;;;;;;;5092980;28;20020;-67
2021/04/10 04:17:07;;;;;;;41.85;28.50;;;;;;;;;;5094027;28;20026;-66
2021/04/10 04:19:34;;;;;;;38.17;25.85;;;;;;;;;;5093778;28;20035;-66
2021/04/10 04:22:01;;;;;;;40.53;30.05;;;;;;;;;;5093992;28;20031;-66
2021/04/10 04:24:27;;;;;;;43.90;29.17;;;;;;;;;;5094072;28;20032;-66
2021/04/10 04:26:53;;;;;;;52.63;33.38;;;;;;;;;;5092161;28;20065;-67
2021/04/10 04:29:19;;;;;;;84.55;52.83;;;;;;;;;;5093676;28;20051;-67
2021/04/10 04:31:46;;;;;;;76.82;46.47;;;;;;;;;;5093553;28;20077;-67
2021/04/10 04:34:12;;;;;;;73.40;43.20;;;;;;;;;;5093508;28;20065;-67
2021/04/10 04:36:38;;;;;;;57.45;33.20;;;;;;;;;;5092708;28;20049;-67
2021/04/10 04:39:05;;;;;;;48.20;27.95;;;;;;;;;;5092371;28;20026;-67
2021/04/10 04:41:31;;;;;;;37.13;17.27;;;;;;;;;;5091934;28;20024;-67
2021/04/10 04:43:57;;;;;;;25.40;14.95;;;;;;;;;;5093570;28;20020;-67
2021/04/10 04:46:23;;;;;;;26.60;12.70;;;;;;;;;;5093254;28;20446;-67
2021/04/10 04:48:49;;;;;;;16.92;8.95;;;;;;;;;;5091777;28;20108;-67
2021/04/10 04:51:19;;;;;;;29.60;13.15;;;;;;;;;;5092245;28;20131;-67
2021/04/10 04:53:46;;;;;;;24.20;12.23;;;;;;;;;;5092290;28;20023;-67
2021/04/10 04:56:12;;;;;;;22.55;11.70;;;;;;;;;;5092931;28;20024;-67
2021/04/10 04:58:38;;;;;;;17.98;9.90;;;;;;;;;;5091993;28;20055;-67
2021/04/10 05:01:04;;;;;;;22.55;12.52;;;;;;;;;;5091934;28;20027;-68
2021/04/10 05:03:30;;;;;;;23.60;13.68;;;;;;;;;;5093034;28;20537;-68
2021/04/10 05:05:57;;;;;;;20.23;10.50;;;;;;;;;;5093059;28;20122;-68
2021/04/10 05:08:23;;;;;;;17.52;9.63;;;;;;;;;;5092826;28;20078;-67
2021/04/10 05:10:49;;;;;;;15.73;8.25;;;;;;;;;;5091793;28;20023;-68
2021/04/10 05:13:15;;;;;;;30.65;13.52;;;;;;;;;;5091976;28;20487;-68
2021/04/10 05:15:41;;;;;;;24.17;10.77;;;;;;;;;;5092482;28;20035;-68
2021/04/10 05:18:08;;;;;;;20.17;9.70;;;;;;;;;;5092982;28;20040;-68
2021/04/10 05:20:34;;;;;;;19.95;9.95;;;;;;;;;;5091624;28;20476;-68
2021/04/10 05:23:00;;;;;;;21.05;11.63;;;;;;;;;;5092587;28;20065;-68
2021/04/10 05:25:26;;;;;;;18.67;11.32;;;;;;;;;;5092803;28;20035;-68
2021/04/10 05:27:53;;;;;;;14.13;6.93;;;;;;;;;;5091568;28;20043;-68
2021/04/10 05:30:19;;;;;;;12.77;6.72;;;;;;;;;;5091109;28;20059;-68
2021/04/10 05:32:46;;;;;;;13.65;7.10;;;;;;;;;;5092957;28;20016;-68
2021/04/10 05:35:13;;;;;;;13.80;7.13;;;;;;;;;;5092886;28;20019;-68
2021/04/10 05:37:40;;;;;;;17.48;9.65;;;;;;;;;;5092324;28;20046;-68
2021/04/10 05:40:06;;;;;;;18.75;9.32;;;;;;;;;;5091374;28;20034;-68
2021/04/10 05:42:32;;;;;;;20.13;9.50;;;;;;;;;;5091178;28;20112;-68
2021/04/10 05:44:59;;;;;;;16.75;7.20;;;;;;;;;;5091960;28;20483;-68
2021/04/10 05:47:25;;;;;;;15.35;7.55;;;;;;;;;;5092691;28;20064;-68
2021/04/10 05:49:52;;;;;;;18.10;7.53;;;;;;;;;;5092610;28;20376;-68
2021/04/10 05:52:18;;;;;;;19.90;8.82;;;;;;;;;;5092437;28;20519;-68
2021/04/10 05:54:45;;;;;;;23.77;11.65;;;;;;;;;;5092665;28;20028;-68
2021/04/10 05:57:11;;;;;;;26.42;13.77;;;;;;;;;;5091238;28;20506;-68
2021/04/10 05:59:37;;;;;;;22.50;12.27;;;;;;;;;;5092091;28;20099;-68
2021/04/10 06:02:06;;;;;;;18.30;9.02;;;;;;;;;;5091133;28;20059;-68
2021/04/10 06:04:36;;;;;;;20.70;9.70;;;;;;;;;;5092099;28;20032;-68
2021/04/10 06:07:03;;;;;;;22.38;11.02;;;;;;;;;;5090961;28;20032;-68
2021/04/10 06:09:29;;;;;;;14.15;8.32;;;;;;;;;;5092434;28;20028;-68
2021/04/10 06:11:55;;;;;;;22.35;10.48;;;;;;;;;;5090817;28;20119;-68
2021/04/10 06:14:22;;;;;;;21.38;9.52;;;;;;;;;;5092341;28;20380;-69
2021/04/10 06:16:49;;;;;;;19.58;8.70;;;;;;;;;;5090994;28;20024;-68
2021/04/10 06:19:15;;;;;;;19.50;10.25;;;;;;;;;;5090593;28;20025;-68
2021/04/10 06:21:41;;;;;;;13.65;7.15;;;;;;;;;;5090987;28;20031;-68
2021/04/10 06:24:08;;;;;;;15.25;7.25;;;;;;;;;;5092506;28;20073;-68
2021/04/10 06:26:34;;;;;;;14.18;6.72;;;;;;;;;;5091751;28;20525;-68
2021/04/10 06:29:00;;;;;;;15.57;8.25;;;;;;;;;;5092288;28;20060;-68
2021/04/10 06:31:26;;;;;;;19.95;10.52;;;;;;;;;;5092392;28;20078;-68
2021/04/10 06:33:53;;;;;;;24.55;12.68;;;;;;;;;;5091688;28;20024;-68
2021/04/10 06:36:19;;;;;;;17.58;8.98;;;;;;;;;;5092149;28;20044;-68
2021/04/10 06:38:45;;;;;;;17.73;9.85;;;;;;;;;;5092093;28;20091;-68
2021/04/10 06:41:14;;;;;;;14.98;9.05;;;;;;;;;;5091650;28;20020;-68
2021/04/10 06:43:43;;;;;;;14.00;7.53;;;;;;;;;;5092062;28;20088;-68
2021/04/10 06:46:10;;;;;;;14.75;7.32;;;;;;;;;;5091890;28;20051;-68
2021/04/10 06:48:39;;;;;;;14.13;6.88;;;;;;;;;;5091684;28;20023;-68
2021/04/10 06:51:05;;;;;;;22.88;10.32;;;;;;;;;;5090826;28;20024;-68
2021/04/10 06:53:32;;;;;;;17.65;8.07;;;;;;;;;;5093098;28;20020;-69
2021/04/10 06:56:00;;;;;;;11.45;5.90;;;;;;;;;;5095170;28;20024;-68
2021/04/10 06:58:32;;;;;;;14.77;7.20;;;;;;;;;;5094303;28;20111;-68
2021/04/10 07:00:59;;;;;;;13.67;6.87;;;;;;;;;;5095081;28;20047;-68
2021/04/10 07:03:26;;;;;;;11.48;6.18;;;;;;;;;;5095485;28;20020;-68
2021/04/10 07:05:53;;;;;;;14.45;4.55;;;;;;;;;;5094012;28;20016;-69
2021/04/10 07:08:23;;;;;;;9.00;3.50;;;;;;;;;;5095119;28;20024;-68
2021/04/10 07:10:52;;;;;;;9.30;5.30;;;;;;;;;;5095606;28;20023;-68
2021/04/10 07:13:18;;;;;;;9.75;4.68;;;;;;;;;;5095429;28;20020;-68
2021/04/10 07:15:45;;;;;;;9.18;4.22;;;;;;;;;;5094887;28;20028;-68
2021/04/10 07:18:11;;;;;;;9.00;4.53;;;;;;;;;;5095309;28;20054;-67
2021/04/10 07:20:39;;;;;;;13.07;5.60;;;;;;;;;;5095219;28;20445;-68
2021/04/10 07:23:06;;;;;;;10.98;5.30;;;;;;;;;;5093479;28;20031;-67
2021/04/10 07:25:34;;;;;;;20.42;9.13;;;;;;;;;;5094971;28;20059;-68
2021/04/10 07:28:18;;;;;;;14.02;5.60;;;;;;;;;;5095014;28;20038;-68
2021/04/10 07:30:54;;;;;;;11.77;4.15;;;;;;;;;;5094408;28;20374;-68
2021/04/10 07:33:23;;;;;;;9.38;4.30;;;;;;;;;;5094918;28;20026;-68
2021/04/10 07:35:49;;;;;;;8.60;4.63;;;;;;;;;;5094662;28;20020;-68
2021/04/10 07:38:28;;;;;;;11.32;3.78;;;;;;;;;;5094803;28;20031;-68
2021/04/10 07:40:55;;;;;;;14.00;4.80;;;;;;;;;;5094754;28;20065;-68
2021/04/10 07:43:25;;;;;;;19.95;8.82;;;;;;;;;;5094298;28;20016;-68
2021/04/10 07:45:51;;;;;;;11.80;5.53;;;;;;;;;;5094516;28;20082;-68
2021/04/10 07:48:19;;;;;;;20.92;8.40;;;;;;;;;;5094765;28;20028;-68
2021/04/10 07:50:46;;;;;;;12.43;5.75;;;;;;;;;;5094407;28;20026;-68
2021/04/10 07:53:18;;;;;;;9.40;3.95;;;;;;;;;;5094566;28;20387;-68
2021/04/10 07:55:44;;;;;;;17.07;5.93;;;;;;;;;;5094505;28;20028;-68
2021/04/10 07:58:30;;;;;;;6.47;3.00;;;;;;;;;;5094105;28;20499;-68
2021/04/10 08:00:57;;;;;;;8.13;2.83;;;;;;;;;;5094374;28;20472;-68
2021/04/10 08:03:37;;;;;;;31.42;13.65;;;;;;;;;;5094422;28;20024;-67
2021/04/10 08:06:06;;;;;;;25.83;11.20;;;;;;;;;;5094050;28;20540;-68
2021/04/10 08:08:33;;;;;;;13.07;5.90;;;;;;;;;;5094310;28;20168;-68
2021/04/10 08:11:07;;;;;;;8.60;3.90;;;;;;;;;;5093919;28;20030;-68
2021/04/10 08:13:33;;;;;;;21.00;10.35;;;;;;;;;;5094124;28;20105;-68
2021/04/10 08:16:12;;;;;;;29.75;9.95;;;;;;;;;;5094360;28;20027;-68
2021/04/10 08:18:49;;;;;;;20.92;9.23;;;;;;;;;;5093641;28;20099;-68
2021/04/10 08:21:15;;;;;;;16.30;7.90;;;;;;;;;;5093991;28;20031;-68
2021/04/10 08:23:42;;;;;;;15.40;5.82;;;;;;;;;;5092733;28;20016;-68
2021/04/10 08:26:08;;;;;;;6.20;2.90;;;;;;;;;;5093685;28;20032;-68
2021/04/10 08:28:38;;;;;;;6.70;3.03;;;;;;;;;;5093979;28;20025;-68
2021/04/10 08:31:06;;;;;;;8.32;4.25;;;;;;;;;;5093815;28;20020;-68
2021/04/10 08:33:34;;;;;;;7.18;3.42;;;;;;;;;;5093454;28;20020;-68
2021/04/10 08:36:54;;;;;;;13.88;4.55;;;;;;;;;;5110377;27;20438;-67
2021/04/10 08:39:23;;;;;;;7.88;4.45;;;;;;;;;;5108750;28;20031;-69
2021/04/10 08:41:53;;;;;;;6.45;3.13;;;;;;;;;;5110297;28;20357;-68
2021/04/10 08:45:35;;;;;;;10.52;5.07;;;;;;;;;;5172498;27;20877;-69
2021/04/10 08:48:06;;;;;;;8.52;4.03;;;;;;;;;;5151715;27;20352;-69
2021/04/10 08:51:18;;;;;;;8.70;4.60;;;;;;;;;;5069807;28;20383;-68
2021/04/10 08:53:48;;;;;;;8.15;3.13;;;;;;;;;;5069305;28;20374;-67
2021/04/10 08:56:17;;;;;;;6.63;3.00;;;;;;;;;;5068303;28;20025;-68
2021/04/10 08:58:44;;;;;;;7.97;3.15;;;;;;;;;;5069670;28;20021;-68
2021/04/10 09:01:17;;;;;;;9.48;4.30;;;;;;;;;;5069150;28;20464;-67
2021/04/10 09:03:46;;;;;;;6.53;2.60;;;;;;;;;;5068336;28;20025;-69
2021/04/10 09:06:13;;;;;;;6.68;3.20;;;;;;;;;;5069703;28;20029;-68
2021/04/10 09:08:39;;;;;;;8.27;2.90;;;;;;;;;;5069222;28;20048;-68
2021/04/10 09:12:26;;;;;;;12.75;5.15;;;;;;;;;;5110397;27;20381;-67
2021/04/10 09:14:52;;;;;;;7.15;2.55;;;;;;;;;;5108636;28;20483;-67
2021/04/10 09:17:19;;;;;;;5.28;2.50;;;;;;;;;;5110202;28;20479;-67
2021/04/10 09:19:46;;;;;;;10.32;4.63;;;;;;;;;;5108853;28;20027;-68
2021/04/10 09:22:18;;;;;;;5.88;2.80;;;;;;;;;;5109665;28;20027;-67
2021/04/10 09:24:46;;;;;;;6.07;2.63;;;;;;;;;;5108680;28;20020;-68
2021/04/10 09:27:28;;;;;;;7.57;2.55;;;;;;;;;;5110122;28;20050;-67
2021/04/10 09:30:05;;;;;;;6.03;2.60;;;;;;;;;;5108433;28;20042;-68
2021/04/10 09:32:50;;;;;;;8.07;2.85;;;;;;;;;;5110353;27;20434;-67
2021/04/10 09:36:28;;;;;;;13.65;7.75;;;;;;;;;;5109850;27;20378;-67
2021/04/10 09:39:50;;;;;;;13.27;6.50;;;;;;;;;;5110167;27;20389;-66
2021/04/10 09:42:53;;;;;;;7.30;2.80;;;;;;;;;;5110010;27;20384;-67
2021/04/10 09:46:34;;;;;;;6.55;2.83;;;;;;;;;;5110212;27;20384;-66
2021/04/10 09:49:00;;;;;;;11.43;5.70;;;;;;;;;;5109107;28;20028;-67
2021/04/10 09:51:59;;;;;;;10.32;3.92;;;;;;;;;;5069887;28;20453;-67
2021/04/10 09:54:27;;;;;;;5.53;2.13;;;;;;;;;;5069618;28;20484;-68
2021/04/10 09:56:53;;;;;;;6.13;2.80;;;;;;;;;;5067931;28;20025;-67
2021/04/10 09:59:19;;;;;;;4.88;2.35;;;;;;;;;;5068302;28;20442;-67
2021/04/10 10:01:45;;;;;;;5.53;2.08;;;;;;;;;;5069451;28;20462;-67
2021/04/10 10:04:13;;;;;;;4.53;2.10;;;;;;;;;;5067781;28;20058;-67
2021/04/10 10:06:46;;;;;;;5.15;2.50;;;;;;;;;;5068099;28;20033;-67
2021/04/10 10:09:24;;;;;;;8.27;3.78;;;;;;;;;;5069705;28;20020;-66
2021/04/10 10:11:55;;;;;;;8.13;4.15;;;;;;;;;;5068956;28;20060;-66
2021/04/10 10:16:10;;;;;;;6.50;3.53;;;;;;;;;;5110214;27;20438;-67
2021/04/10 10:21:49;;;;;;;7.03;2.70;;;;;;;;;;5069795;28;20403;-67
2021/04/10 10:24:19;;;;;;;5.97;3.63;;;;;;;;;;5068477;28;20473;-67
2021/04/10 10:30:15;;;;;;;5.75;2.15;;;;;;;;;;5110071;27;20694;-67
2021/04/10 10:32:48;;;;;;;8.13;3.15;;;;;;;;;;5109836;28;20028;-66
2021/04/10 10:36:50;;;;;;;3.85;2.38;;;;;;;;;;5110243;27;20361;-66
2021/04/10 10:39:29;;;;;;;5.13;2.50;;;;;;;;;;5109882;28;20103;-67
2021/04/10 10:41:56;;;;;;;5.03;2.03;;;;;;;;;;5108968;28;20116;-67
2021/04/10 10:44:22;;;;;;;4.97;2.30;;;;;;;;;;5110196;28;20467;-66
2021/04/10 10:46:58;;;;;;;5.55;2.50;;;;;;;;;;5109852;28;20106;-67
2021/04/10 10:49:25;;;;;;;4.93;2.15;;;;;;;;;;5110293;28;20016;-67
2021/04/10 10:53:37;;;;;;;5.65;2.72;;;;;;;;;;5109704;27;20445;-67
2021/04/10 10:56:11;;;;;;;4.75;2.35;;;;;;;;;;5108604;28;20422;-67
2021/04/10 10:58:39;;;;;;;5.13;2.08;;;;;;;;;;5110273;28;20100;-67
2021/04/10 11:03:18;;;;;;;5.25;2.53;;;;;;;;;;5110300;27;20399;-67
2021/04/10 11:05:44;;;;;;;3.17;1.65;;;;;;;;;;5110325;28;20061;-67
2021/04/10 11:08:11;;;;;;;9.07;3.15;;;;;;;;;;5108371;28;20024;-67
2021/04/10 11:11:57;;;;;;;3.50;1.98;;;;;;;;;;5110419;27;20790;-67
2021/04/10 11:15:32;;;;;;;5.93;2.05;;;;;;;;;;5171981;27;20163;-67
2021/04/10 11:17:58;;;;;;;6.40;2.72;;;;;;;;;;5132972;27;20074;-67
2021/04/10 11:20:32;;;;;;;6.53;2.63;;;;;;;;;;5132819;27;20064;-67
2021/04/10 11:23:04;;;;;;;6.07;3.17;;;;;;;;;;5151058;27;20102;-67
2021/04/10 11:25:45;;;;;;;9.60;4.07;;;;;;;;;;5132686;27;20057;-68
2021/04/10 11:28:25;;;;;;;2.95;1.67;;;;;;;;;;5151027;27;20023;-68
2021/04/10 11:31:13;;;;;;;4.88;2.05;;;;;;;;;;5151321;27;20023;-67
2021/04/10 11:33:39;;;;;;;6.80;2.60;;;;;;;;;;5132265;27;20023;-67
2021/04/10 11:36:06;;;;;;;8.27;3.35;;;;;;;;;;5150727;27;20031;-67
2021/04/10 11:38:32;;;;;;;4.15;1.85;;;;;;;;;;5150977;27;20106;-67
2021/04/10 11:40:58;;;;;;;2.20;1.33;;;;;;;;;;5132352;27;20494;-67
2021/04/10 11:43:24;;;;;;;4.40;1.50;;;;;;;;;;5132128;27;20378;-67
2021/04/10 11:45:51;;;;;;;4.65;2.20;;;;;;;;;;5151181;27;20018;-67
2021/04/10 11:48:19;;;;;;;4.13;1.52;;;;;;;;;;5132336;27;20027;-67
2021/04/10 11:50:45;;;;;;;2.20;1.35;;;;;;;;;;5150761;27;20019;-68
2021/04/10 11:53:12;;;;;;;3.25;1.63;;;;;;;;;;5132356;27;20105;-69
2021/04/10 11:55:38;;;;;;;4.35;1.70;;;;;;;;;;5132334;27;20031;-68
2021/04/10 11:58:04;;;;;;;4.05;1.75;;;;;;;;;;5131692;27;20027;-68
2021/04/10 12:00:31;;;;;;;8.13;2.65;;;;;;;;;;5150805;27;20038;-68
2021/04/10 12:03:07;;;;;;;9.95;2.95;;;;;;;;;;5150657;27;20045;-67
2021/04/10 12:05:36;;;;;;;5.32;1.77;;;;;;;;;;5132016;27;20019;-68
2021/04/10 12:08:25;;;;;;;8.85;3.15;;;;;;;;;;5132003;27;20019;-68
2021/04/10 12:10:53;;;;;;;4.25;2.10;;;;;;;;;;5150605;27;20071;-67
2021/04/10 12:13:20;;;;;;;4.40;1.45;;;;;;;;;;5150187;27;20023;-68
2021/04/10 12:15:55;;;;;;;3.00;1.55;;;;;;;;;;5150505;27;20050;-67
2021/04/10 12:18:23;;;;;;;6.47;2.63;;;;;;;;;;5131345;27;20110;-68
2021/04/10 12:20:51;;;;;;;5.05;1.92;;;;;;;;;;5150345;27;20023;-68
2021/04/10 12:23:17;;;;;;;14.52;6.47;;;;;;;;;;5150213;27;20098;-68
2021/04/10 12:25:44;;;;;;;8.20;3.28;;;;;;;;;;5142299;27;20023;-68
2021/04/10 12:28:10;;;;;;;8.15;3.25;;;;;;;;;;5117995;27;20412;-68
2021/04/10 12:30:36;;;;;;;3.75;1.60;;;;;;;;;;5136525;27;20026;-68
2021/04/10 12:34:27;;;;;;;6.10;2.75;;;;;;;;;;5069763;28;20384;-67
2021/04/10 12:36:53;;;;;;;3.08;1.08;;;;;;;;;;5069828;28;20033;-68
2021/04/10 12:39:57;;;;;;;7.75;3.28;;;;;;;;;;5109916;27;20442;-67
2021/04/10 12:42:23;;;;;;;5.15;2.35;;;;;;;;;;5109136;28;20035;-67
2021/04/10 12:44:50;;;;;;;3.80;1.50;;;;;;;;;;5110187;28;20121;-67
2021/04/10 12:47:16;;;;;;;4.78;2.03;;;;;;;;;;5108450;28;20023;-67
2021/04/10 12:49:43;;;;;;;4.00;1.77;;;;;;;;;;5110264;28;20024;-67
2021/04/10 12:52:09;;;;;;;2.92;1.63;;;;;;;;;;5109014;28;20479;-67
2021/04/10 12:54:36;;;;;;;2.50;1.20;;;;;;;;;;5108397;28;20395;-67
2021/04/10 12:57:02;;;;;;;6.72;1.55;;;;;;;;;;5110081;28;20028;-67
2021/04/10 12:59:29;;;;;;;3.60;1.40;;;;;;;;;;5108168;28;20035;-67
2021/04/10 13:01:56;;;;;;;15.68;5.70;;;;;;;;;;5109931;28;20068;-67
2021/04/10 13:04:23;;;;;;;13.50;5.40;;;;;;;;;;5109923;28;20024;-67
2021/04/10 13:06:50;;;;;;;6.32;2.88;;;;;;;;;;5108141;28;20028;-67
2021/04/10 13:09:16;;;;;;;5.07;2.67;;;;;;;;;;5108652;28;20042;-67
2021/04/10 13:11:42;;;;;;;4.05;1.42;;;;;;;;;;5109799;28;20034;-67
2021/04/10 13:14:09;;;;;;;9.52;4.88;;;;;;;;;;5108095;28;20027;-67
2021/04/10 13:16:35;;;;;;;4.43;2.10;;;;;;;;;;5109569;28;20043;-67
2021/04/10 13:19:02;;;;;;;3.70;1.25;;;;;;;;;;5109487;28;20480;-67
2021/04/10 13:21:28;;;;;;;2.03;1.30;;;;;;;;;;5109057;28;20070;-67
2021/04/10 13:23:55;;;;;;;3.40;1.63;;;;;;;;;;5108226;28;20028;-68
2021/04/10 13:26:21;;;;;;;7.47;3.00;;;;;;;;;;5108159;28;20020;-67
2021/04/10 13:28:47;;;;;;;5.72;2.08;;;;;;;;;;5109167;28;20047;-67
2021/04/10 13:31:13;;;;;;;2.55;1.33;;;;;;;;;;5109492;28;20020;-67
2021/04/10 13:33:40;;;;;;;2.35;1.27;;;;;;;;;;5108004;28;20028;-67
2021/04/10 13:36:06;;;;;;;3.00;1.20;;;;;;;;;;5109004;28;20043;-67
2021/04/10 13:38:32;;;;;;;2.90;1.50;;;;;;;;;;5108875;28;20055;-67
2021/04/10 13:40:59;;;;;;;4.82;1.88;;;;;;;;;;5109283;28;20020;-67
2021/04/10 13:43:25;;;;;;;6.07;1.52;;;;;;;;;;5108899;28;20024;-67
2021/04/10 13:45:51;;;;;;;4.43;1.48;;;;;;;;;;5109205;28;20016;-67
2021/04/10 13:48:17;;;;;;;4.43;1.70;;;;;;;;;;5109181;28;20098;-68
2021/04/10 13:50:43;;;;;;;17.55;8.63;;;;;;;;;;5098625;28;20468;-67
2021/04/10 13:53:10;;;;;;;7.32;2.55;;;;;;;;;;5095671;28;20125;-67
2021/04/10 13:55:36;;;;;;;4.35;2.28;;;;;;;;;;5095344;28;20020;-67
2021/04/10 13:58:02;;;;;;;5.35;2.17;;;;;;;;;;5094185;28;20044;-67
2021/04/10 14:00:28;;;;;;;4.78;2.13;;;;;;;;;;5095195;28;20506;-67
2021/04/10 14:02:54;;;;;;;5.25;2.58;;;;;;;;;;5094929;28;20039;-67
2021/04/10 14:05:21;;;;;;;5.05;2.00;;;;;;;;;;5095138;28;20058;-67
2021/04/10 14:07:48;;;;;;;2.40;1.23;;;;;;;;;;5093959;28;20043;-67
2021/04/10 14:10:15;;;;;;;2.95;1.42;;;;;;;;;;5093523;28;20484;-67
2021/04/10 14:12:42;;;;;;;4.03;1.35;;;;;;;;;;5095088;28;20028;-67
2021/04/10 14:15:09;;;;;;;3.45;1.52;;;;;;;;;;5094960;28;20434;-67
2021/04/10 14:17:36;;;;;;;3.47;1.20;;;;;;;;;;5094528;28;20400;-67
2021/04/10 14:20:04;;;;;;;2.45;1.10;;;;;;;;;;5094869;28;20063;-67
2021/04/10 14:22:31;;;;;;;2.72;1.27;;;;;;;;;;5093525;28;20384;-67
2021/04/10 14:24:57;;;;;;;3.70;1.42;;;;;;;;;;5094432;28;20035;-67
2021/04/10 14:27:23;;;;;;;7.18;3.58;;;;;;;;;;5094928;28;20017;-67
2021/04/10 14:29:49;;;;;;;4.28;1.75;;;;;;;;;;5093467;28;20055;-67
2021/04/10 14:32:16;;;;;;;4.38;1.55;;;;;;;;;;5094224;28;20024;-67
2021/04/10 14:34:42;;;;;;;2.30;1.20;;;;;;;;;;5094560;28;20020;-67
2021/04/10 14:37:09;;;;;;;4.10;1.70;;;;;;;;;;5094398;28;20028;-67
2021/04/10 14:39:36;;;;;;;4.25;1.90;;;;;;;;;;5094048;28;20063;-67
2021/04/10 14:42:02;;;;;;;5.55;1.77;;;;;;;;;;5093512;28;20024;-67
2021/04/10 14:44:29;;;;;;;6.93;2.88;;;;;;;;;;5094479;28;20792;-67
2021/04/10 14:46:55;;;;;;;6.80;2.55;;;;;;;;;;5094176;28;20048;-67
2021/04/10 14:49:21;;;;;;;8.48;5.05;;;;;;;;;;5094616;28;20495;-67
2021/04/10 14:51:48;;;;;;;11.55;4.07;;;;;;;;;;5092971;28;20543;-67
2021/04/10 14:54:14;;;;;;;4.85;2.67;;;;;;;;;;5092576;28;20024;-67
2021/04/10 14:56:41;;;;;;;6.97;3.42;;;;;;;;;;5093022;28;20111;-67
2021/04/10 14:59:07;;;;;;;14.55;5.25;;;;;;;;;;5093710;28;20552;-67
2021/04/10 15:01:33;;;;;;;5.28;3.03;;;;;;;;;;5093006;28;20028;-68
2021/04/10 15:03:59;;;;;;;2.20;1.20;;;;;;;;;;5092824;28;20028;-66
2021/04/10 15:06:26;;;;;;;4.43;2.85;;;;;;;;;;5093754;28;20020;-66